sensor_id;sensor_type;location;lat;lon;timestamp;temperature;humidity
4725;DHT22;2376;53.544;10.226;2022-07-09T00:00:59;16.70;99.90
4725;DHT22;2376;53.544;10.226;2022-07-09T00:03:26;16.70;99.90
4725;DHT22;2376;53.544;10.226;2022-07-09T00:05:52;16.70;99.90
4725;DHT22;2376;53.544;10.226;2022-07-09T00:08:19;16.60;99.90
4725;DHT22;2376;53.544;10.226;2022-07-09T00:10:48;16.60;99.90
4725;DHT22;2376;53.544;10.226;2022-07-09T00:13:15;16.60;99.90
4725;DHT22;2376;53.544;10.226;2022-07-09T00:15:41;16.70;99.90
4725;DHT22;2376;53.544;10.226;2022-07-09T00:18:09;16.80;99.90
4725;DHT22;2376;53.544;10.226;2022-07-09T00:20:36;16.70;99.90
4725;DHT22;2376;53.544;10.226;2022-07-09T00:23:02;16.60;99.90
4725;DHT22;2376;53.544;10.226;2022-07-09T00:25:29;16.60;99.90
4725;DHT22;2376;53.544;10.226;2022-07-09T00:27:57;16.60;99.90
4725;DHT22;2376;53.544;10.226;2022-07-09T00:30:24;16.60;99.90
4725;DHT22;2376;53.544;10.226;2022-07-09T00:32:51;16.60;99.90
4725;DHT22;2376;53.544;10.226;2022-07-09T00:35:17;16.60;99.90
4725;DHT22;2376;53.544;10.226;2022-07-09T00:37:44;16.60;99.90
4725;DHT22;2376;53.544;10.226;2022-07-09T00:40:11;16.60;99.90
4725;DHT22;2376;53.544;10.226;2022-07-09T00:42:38;16.50;99.90
4725;DHT22;2376;53.544;10.226;2022-07-09T00:45:07;16.50;99.90
4725;DHT22;2376;53.544;10.226;2022-07-09T00:47:34;16.50;99.90
4725;DHT22;2376;53.544;10.226;2022-07-09T00:50:00;16.60;99.90
4725;DHT22;2376;53.544;10.226;2022-07-09T00:52:29;16.60;99.90
4725;DHT22;2376;53.544;10.226;2022-07-09T00:54:59;16.60;99.90
4725;DHT22;2376;53.544;10.226;2022-07-09T00:57:27;16.60;99.90
4725;DHT22;2376;53.544;10.226;2022-07-09T00:59:54;16.60;99.90
4725;DHT22;2376;53.544;10.226;2022-07-09T01:02:23;16.60;99.90
4725;DHT22;2376;53.544;10.226;2022-07-09T01:04:50;16.60;99.90
4725;DHT22;2376;53.544;10.226;2022-07-09T01:07:16;16.60;99.90
4725;DHT22;2376;53.544;10.226;2022-07-09T01:09:43;16.60;99.90
4725;DHT22;2376;53.544;10.226;2022-07-09T01:12:10;16.50;99.90
4725;DHT22;2376;53.544;10.226;2022-07-09T01:14:37;16.60;99.90
4725;DHT22;2376;53.544;10.226;2022-07-09T01:17:05;16.50;99.90
4725;DHT22;2376;53.544;10.226;2022-07-09T01:19:34;16.60;99.90
4725;DHT22;2376;53.544;10.226;2022-07-09T01:22:02;16.50;99.90
4725;DHT22;2376;53.544;10.226;2022-07-09T01:24:29;16.50;99.90
4725;DHT22;2376;53.544;10.226;2022-07-09T01:26:56;16.40;99.90
4725;DHT22;2376;53.544;10.226;2022-07-09T01:29:23;16.50;99.90
4725;DHT22;2376;53.544;10.226;2022-07-09T01:31:50;16.40;99.90
4725;DHT22;2376;53.544;10.226;2022-07-09T01:34:17;16.40;99.90
4725;DHT22;2376;53.544;10.226;2022-07-09T01:36:43;16.50;99.90
4725;DHT22;2376;53.544;10.226;2022-07-09T01:39:12;16.50;99.90
4725;DHT22;2376;53.544;10.226;2022-07-09T01:41:38;16.50;99.90
4725;DHT22;2376;53.544;10.226;2022-07-09T01:44:05;16.50;99.90
4725;DHT22;2376;53.544;10.226;2022-07-09T01:46:32;16.60;99.90
4725;DHT22;2376;53.544;10.226;2022-07-09T01:48:59;16.60;99.90
4725;DHT22;2376;53.544;10.226;2022-07-09T01:51:25;16.60;99.90
4725;DHT22;2376;53.544;10.226;2022-07-09T01:53:52;16.60;99.90
4725;DHT22;2376;53.544;10.226;2022-07-09T01:56:20;16.60;99.90
4725;DHT22;2376;53.544;10.226;2022-07-09T01:58:47;16.60;99.90
4725;DHT22;2376;53.544;10.226;2022-07-09T02:01:14;16.60;99.90
4725;DHT22;2376;53.544;10.226;2022-07-09T02:03:41;16.50;99.90
4725;DHT22;2376;53.544;10.226;2022-07-09T02:06:07;16.50;99.90
4725;DHT22;2376;53.544;10.226;2022-07-09T02:08:34;16.60;99.90
4725;DHT22;2376;53.544;10.226;2022-07-09T02:11:02;16.60;99.90
4725;DHT22;2376;53.544;10.226;2022-07-09T02:13:30;16.60;99.90
4725;DHT22;2376;53.544;10.226;2022-07-09T02:15:57;16.60;99.90
4725;DHT22;2376;53.544;10.226;2022-07-09T02:18:25;16.50;99.90
4725;DHT22;2376;53.544;10.226;2022-07-09T02:20:52;16.60;99.90
4725;DHT22;2376;53.544;10.226;2022-07-09T02:23:21;16.60;99.90
4725;DHT22;2376;53.544;10.226;2022-07-09T02:25:48;16.60;99.90
4725;DHT22;2376;53.544;10.226;2022-07-09T02:28:14;16.60;99.90
4725;DHT22;2376;53.544;10.226;2022-07-09T02:30:42;16.60;99.90
4725;DHT22;2376;53.544;10.226;2022-07-09T02:33:09;16.60;99.90
4725;DHT22;2376;53.544;10.226;2022-07-09T02:35:36;16.60;99.90
4725;DHT22;2376;53.544;10.226;2022-07-09T02:38:02;16.50;99.90
4725;DHT22;2376;53.544;10.226;2022-07-09T02:40:29;16.50;99.90
4725;DHT22;2376;53.544;10.226;2022-07-09T02:42:56;16.50;99.90
4725;DHT22;2376;53.544;10.226;2022-07-09T02:45:22;16.60;99.90
4725;DHT22;2376;53.544;10.226;2022-07-09T02:47:51;16.60;99.90
4725;DHT22;2376;53.544;10.226;2022-07-09T02:50:17;16.60;99.90
4725;DHT22;2376;53.544;10.226;2022-07-09T02:52:44;16.60;99.90
4725;DHT22;2376;53.544;10.226;2022-07-09T02:55:11;16.60;99.90
4725;DHT22;2376;53.544;10.226;2022-07-09T02:57:37;16.50;99.90
4725;DHT22;2376;53.544;10.226;2022-07-09T03:00:05;16.60;99.90
4725;DHT22;2376;53.544;10.226;2022-07-09T03:02:32;16.60;99.90
4725;DHT22;2376;53.544;10.226;2022-07-09T03:05:00;16.60;99.90
4725;DHT22;2376;53.544;10.226;2022-07-09T03:07:27;16.50;99.90
4725;DHT22;2376;53.544;10.226;2022-07-09T03:09:54;16.60;99.90
4725;DHT22;2376;53.544;10.226;2022-07-09T03:12:20;16.60;99.90
4725;DHT22;2376;53.544;10.226;2022-07-09T03:14:47;16.50;99.90
4725;DHT22;2376;53.544;10.226;2022-07-09T03:17:14;16.50;99.90
4725;DHT22;2376;53.544;10.226;2022-07-09T03:19:41;16.60;99.90
4725;DHT22;2376;53.544;10.226;2022-07-09T03:22:09;16.60;99.90
4725;DHT22;2376;53.544;10.226;2022-07-09T03:24:35;16.60;99.90
4725;DHT22;2376;53.544;10.226;2022-07-09T03:27:03;16.60;99.90
4725;DHT22;2376;53.544;10.226;2022-07-09T03:29:29;16.50;99.90
4725;DHT22;2376;53.544;10.226;2022-07-09T03:31:56;16.50;99.90
4725;DHT22;2376;53.544;10.226;2022-07-09T03:34:23;16.50;99.90
4725;DHT22;2376;53.544;10.226;2022-07-09T03:36:50;16.50;99.90
4725;DHT22;2376;53.544;10.226;2022-07-09T03:39:18;16.60;99.90
4725;DHT22;2376;53.544;10.226;2022-07-09T03:41:44;16.50;99.90
4725;DHT22;2376;53.544;10.226;2022-07-09T03:44:11;16.50;99.90
4725;DHT22;2376;53.544;10.226;2022-07-09T03:46:38;16.50;99.90
4725;DHT22;2376;53.544;10.226;2022-07-09T03:49:04;16.50;99.90
4725;DHT22;2376;53.544;10.226;2022-07-09T03:51:32;16.40;99.90
4725;DHT22;2376;53.544;10.226;2022-07-09T03:53:58;16.50;99.90
4725;DHT22;2376;53.544;10.226;2022-07-09T03:56:27;16.50;99.90
4725;DHT22;2376;53.544;10.226;2022-07-09T03:58:53;16.50;99.90
4725;DHT22;2376;53.544;10.226;2022-07-09T04:01:20;16.50;99.90
4725;DHT22;2376;53.544;10.226;2022-07-09T04:03:47;16.50;99.90
4725;DHT22;2376;53.544;10.226;2022-07-09T04:06:14;16.50;99.90
4725;DHT22;2376;53.544;10.226;2022-07-09T04:08:41;16.50;99.90
4725;DHT22;2376;53.544;10.226;2022-07-09T04:11:08;16.50;99.90
4725;DHT22;2376;53.544;10.226;2022-07-09T04:13:36;16.50;99.90
4725;DHT22;2376;53.544;10.226;2022-07-09T04:16:03;16.50;99.90
4725;DHT22;2376;53.544;10.226;2022-07-09T04:18:30;16.50;99.90
4725;DHT22;2376;53.544;10.226;2022-07-09T04:20:56;16.50;99.90
4725;DHT22;2376;53.544;10.226;2022-07-09T04:23:23;16.50;99.90
4725;DHT22;2376;53.544;10.226;2022-07-09T04:25:50;16.50;99.90
4725;DHT22;2376;53.544;10.226;2022-07-09T04:28:16;16.50;99.90
4725;DHT22;2376;53.544;10.226;2022-07-09T04:30:45;16.50;99.90
4725;DHT22;2376;53.544;10.226;2022-07-09T04:33:12;16.60;99.90
4725;DHT22;2376;53.544;10.226;2022-07-09T04:35:39;16.60;99.90
4725;DHT22;2376;53.544;10.226;2022-07-09T04:38:06;16.60;99.90
4725;DHT22;2376;53.544;10.226;2022-07-09T04:40:32;16.60;99.90
4725;DHT22;2376;53.544;10.226;2022-07-09T04:42:59;16.60;99.90
4725;DHT22;2376;53.544;10.226;2022-07-09T04:45:26;16.60;99.90
4725;DHT22;2376;53.544;10.226;2022-07-09T04:47:56;16.70;99.90
4725;DHT22;2376;53.544;10.226;2022-07-09T04:50:23;16.60;99.90
4725;DHT22;2376;53.544;10.226;2022-07-09T04:52:50;16.60;99.90
4725;DHT22;2376;53.544;10.226;2022-07-09T04:55:17;16.70;99.90
4725;DHT22;2376;53.544;10.226;2022-07-09T04:57:43;16.60;99.90
4725;DHT22;2376;53.544;10.226;2022-07-09T05:00:11;16.60;99.90
4725;DHT22;2376;53.544;10.226;2022-07-09T05:02:39;16.70;99.90
4725;DHT22;2376;53.544;10.226;2022-07-09T05:05:08;16.60;99.90
4725;DHT22;2376;53.544;10.226;2022-07-09T05:07:35;16.60;99.90
4725;DHT22;2376;53.544;10.226;2022-07-09T05:10:03;16.70;99.90
4725;DHT22;2376;53.544;10.226;2022-07-09T05:12:30;16.60;99.90
4725;DHT22;2376;53.544;10.226;2022-07-09T05:14:56;16.70;99.90
4725;DHT22;2376;53.544;10.226;2022-07-09T05:17:24;16.70;99.90
4725;DHT22;2376;53.544;10.226;2022-07-09T05:19:51;16.70;99.90
4725;DHT22;2376;53.544;10.226;2022-07-09T05:22:19;16.70;99.90
4725;DHT22;2376;53.544;10.226;2022-07-09T05:24:48;16.70;99.90
4725;DHT22;2376;53.544;10.226;2022-07-09T05:27:15;16.70;99.90
4725;DHT22;2376;53.544;10.226;2022-07-09T05:29:41;16.70;99.90
4725;DHT22;2376;53.544;10.226;2022-07-09T05:32:08;16.80;99.90
4725;DHT22;2376;53.544;10.226;2022-07-09T05:34:35;16.80;99.90
4725;DHT22;2376;53.544;10.226;2022-07-09T05:37:01;16.80;99.90
4725;DHT22;2376;53.544;10.226;2022-07-09T05:39:29;16.80;99.90
4725;DHT22;2376;53.544;10.226;2022-07-09T05:41:56;16.80;99.90
4725;DHT22;2376;53.544;10.226;2022-07-09T05:44:23;16.90;99.90
4725;DHT22;2376;53.544;10.226;2022-07-09T05:46:50;16.90;99.90
4725;DHT22;2376;53.544;10.226;2022-07-09T05:49:16;16.90;99.90
4725;DHT22;2376;53.544;10.226;2022-07-09T05:51:44;16.90;99.90
4725;DHT22;2376;53.544;10.226;2022-07-09T05:54:12;16.90;99.90
4725;DHT22;2376;53.544;10.226;2022-07-09T05:56:40;16.90;99.90
4725;DHT22;2376;53.544;10.226;2022-07-09T05:59:10;16.90;99.90
4725;DHT22;2376;53.544;10.226;2022-07-09T06:01:38;17.00;99.90
4725;DHT22;2376;53.544;10.226;2022-07-09T06:04:07;17.00;99.90
4725;DHT22;2376;53.544;10.226;2022-07-09T06:06:36;17.10;99.90
4725;DHT22;2376;53.544;10.226;2022-07-09T06:09:03;17.10;99.90
4725;DHT22;2376;53.544;10.226;2022-07-09T06:11:30;17.00;99.90
4725;DHT22;2376;53.544;10.226;2022-07-09T06:13:58;17.10;99.90
4725;DHT22;2376;53.544;10.226;2022-07-09T06:16:25;17.00;99.90
4725;DHT22;2376;53.544;10.226;2022-07-09T06:18:51;17.10;99.90
4725;DHT22;2376;53.544;10.226;2022-07-09T06:21:18;17.00;99.90
4725;DHT22;2376;53.544;10.226;2022-07-09T06:23:45;17.10;99.90
4725;DHT22;2376;53.544;10.226;2022-07-09T06:26:11;17.10;99.90
4725;DHT22;2376;53.544;10.226;2022-07-09T06:28:38;17.10;99.90
4725;DHT22;2376;53.544;10.226;2022-07-09T06:31:06;17.10;99.90
4725;DHT22;2376;53.544;10.226;2022-07-09T06:33:33;17.10;99.90
4725;DHT22;2376;53.544;10.226;2022-07-09T06:36:00;17.10;99.90
4725;DHT22;2376;53.544;10.226;2022-07-09T06:38:28;17.10;99.90
4725;DHT22;2376;53.544;10.226;2022-07-09T06:40:55;17.10;99.90
4725;DHT22;2376;53.544;10.226;2022-07-09T06:43:22;17.20;99.90
4725;DHT22;2376;53.544;10.226;2022-07-09T06:45:49;17.20;99.90
4725;DHT22;2376;53.544;10.226;2022-07-09T06:48:17;17.20;99.90
4725;DHT22;2376;53.544;10.226;2022-07-09T06:50:43;17.20;99.90
4725;DHT22;2376;53.544;10.226;2022-07-09T06:53:10;17.20;99.90
4725;DHT22;2376;53.544;10.226;2022-07-09T06:55:37;17.30;99.90
4725;DHT22;2376;53.544;10.226;2022-07-09T06:58:04;17.30;99.90
4725;DHT22;2376;53.544;10.226;2022-07-09T07:00:30;17.30;99.90
4725;DHT22;2376;53.544;10.226;2022-07-09T07:02:59;17.40;99.90
4725;DHT22;2376;53.544;10.226;2022-07-09T07:05:27;17.40;99.90
4725;DHT22;2376;53.544;10.226;2022-07-09T07:07:54;17.40;99.90
4725;DHT22;2376;53.544;10.226;2022-07-09T07:10:21;17.50;99.90
4725;DHT22;2376;53.544;10.226;2022-07-09T07:12:47;17.50;99.90
4725;DHT22;2376;53.544;10.226;2022-07-09T07:15:14;17.50;99.90
4725;DHT22;2376;53.544;10.226;2022-07-09T07:17:41;17.60;99.90
4725;DHT22;2376;53.544;10.226;2022-07-09T07:20:09;17.60;99.90
4725;DHT22;2376;53.544;10.226;2022-07-09T07:22:37;17.70;99.90
4725;DHT22;2376;53.544;10.226;2022-07-09T07:25:04;17.80;99.90
4725;DHT22;2376;53.544;10.226;2022-07-09T07:27:31;17.80;99.90
4725;DHT22;2376;53.544;10.226;2022-07-09T07:29:58;17.80;99.90
4725;DHT22;2376;53.544;10.226;2022-07-09T07:32:24;17.80;99.90
4725;DHT22;2376;53.544;10.226;2022-07-09T07:34:51;17.90;99.90
4725;DHT22;2376;53.544;10.226;2022-07-09T07:37:18;18.00;99.90
4725;DHT22;2376;53.544;10.226;2022-07-09T07:39:46;18.00;99.90
4725;DHT22;2376;53.544;10.226;2022-07-09T07:42:13;18.10;99.90
4725;DHT22;2376;53.544;10.226;2022-07-09T07:44:40;18.20;99.90
4725;DHT22;2376;53.544;10.226;2022-07-09T07:47:07;18.30;99.90
4725;DHT22;2376;53.544;10.226;2022-07-09T07:49:34;18.30;99.90
4725;DHT22;2376;53.544;10.226;2022-07-09T07:52:01;18.40;99.90
4725;DHT22;2376;53.544;10.226;2022-07-09T07:54:28;18.50;99.90
4725;DHT22;2376;53.544;10.226;2022-07-09T07:56:56;18.60;99.90
4725;DHT22;2376;53.544;10.226;2022-07-09T07:59:23;18.70;99.90
4725;DHT22;2376;53.544;10.226;2022-07-09T08:01:50;18.70;99.90
4725;DHT22;2376;53.544;10.226;2022-07-09T08:04:17;18.70;99.90
4725;DHT22;2376;53.544;10.226;2022-07-09T08:06:43;18.80;99.90
4725;DHT22;2376;53.544;10.226;2022-07-09T08:09:10;18.70;99.90
4725;DHT22;2376;53.544;10.226;2022-07-09T08:11:37;18.70;99.90
4725;DHT22;2376;53.544;10.226;2022-07-09T08:14:05;18.70;99.90
4725;DHT22;2376;53.544;10.226;2022-07-09T08:16:32;18.70;99.90
4725;DHT22;2376;53.544;10.226;2022-07-09T08:18:59;18.70;99.90
4725;DHT22;2376;53.544;10.226;2022-07-09T08:21:25;18.70;99.90
4725;DHT22;2376;53.544;10.226;2022-07-09T08:23:52;18.90;99.90
4725;DHT22;2376;53.544;10.226;2022-07-09T08:26:21;19.10;99.90
4725;DHT22;2376;53.544;10.226;2022-07-09T08:28:48;19.20;99.90
4725;DHT22;2376;53.544;10.226;2022-07-09T08:31:17;19.30;99.90
4725;DHT22;2376;53.544;10.226;2022-07-09T08:33:45;19.40;99.90
4725;DHT22;2376;53.544;10.226;2022-07-09T08:36:12;19.50;99.90
4725;DHT22;2376;53.544;10.226;2022-07-09T08:38:39;19.50;99.90
4725;DHT22;2376;53.544;10.226;2022-07-09T08:41:06;19.50;99.90
4725;DHT22;2376;53.544;10.226;2022-07-09T08:43:33;19.60;99.90
4725;DHT22;2376;53.544;10.226;2022-07-09T08:46:00;19.60;99.90
4725;DHT22;2376;53.544;10.226;2022-07-09T08:48:31;19.60;99.90
4725;DHT22;2376;53.544;10.226;2022-07-09T08:50:59;19.50;99.90
4725;DHT22;2376;53.544;10.226;2022-07-09T08:53:27;19.50;99.90
4725;DHT22;2376;53.544;10.226;2022-07-09T08:55:55;19.30;99.90
4725;DHT22;2376;53.544;10.226;2022-07-09T08:58:22;19.30;99.90
4725;DHT22;2376;53.544;10.226;2022-07-09T09:00:49;19.30;99.90
4725;DHT22;2376;53.544;10.226;2022-07-09T09:03:16;19.30;99.90
4725;DHT22;2376;53.544;10.226;2022-07-09T09:05:44;19.30;99.90
4725;DHT22;2376;53.544;10.226;2022-07-09T09:08:18;19.40;99.90
4725;DHT22;2376;53.544;10.226;2022-07-09T09:10:46;19.50;99.90
4725;DHT22;2376;53.544;10.226;2022-07-09T09:13:14;19.50;99.90
4725;DHT22;2376;53.544;10.226;2022-07-09T09:15:42;19.50;99.90
4725;DHT22;2376;53.544;10.226;2022-07-09T09:18:08;19.50;99.90
4725;DHT22;2376;53.544;10.226;2022-07-09T09:20:35;19.60;99.90
4725;DHT22;2376;53.544;10.226;2022-07-09T09:23:03;19.70;99.90
4725;DHT22;2376;53.544;10.226;2022-07-09T09:25:36;20.00;99.90
4725;DHT22;2376;53.544;10.226;2022-07-09T09:28:03;20.10;99.90
4725;DHT22;2376;53.544;10.226;2022-07-09T09:30:31;20.30;99.90
4725;DHT22;2376;53.544;10.226;2022-07-09T09:32:58;20.50;99.90
4725;DHT22;2376;53.544;10.226;2022-07-09T09:35:26;20.60;99.90
4725;DHT22;2376;53.544;10.226;2022-07-09T09:37:53;20.70;99.90
4725;DHT22;2376;53.544;10.226;2022-07-09T09:40:21;20.80;99.90
4725;DHT22;2376;53.544;10.226;2022-07-09T09:42:48;20.90;99.90
4725;DHT22;2376;53.544;10.226;2022-07-09T09:45:16;20.80;99.90
4725;DHT22;2376;53.544;10.226;2022-07-09T09:47:46;20.90;99.90
4725;DHT22;2376;53.544;10.226;2022-07-09T09:50:17;21.00;99.90
4725;DHT22;2376;53.544;10.226;2022-07-09T09:52:46;21.00;99.90
4725;DHT22;2376;53.544;10.226;2022-07-09T09:55:14;20.90;99.90
4725;DHT22;2376;53.544;10.226;2022-07-09T09:57:42;21.00;99.90
4725;DHT22;2376;53.544;10.226;2022-07-09T10:00:10;21.00;99.90
4725;DHT22;2376;53.544;10.226;2022-07-09T10:02:39;21.00;99.90
4725;DHT22;2376;53.544;10.226;2022-07-09T10:05:08;21.00;99.90
4725;DHT22;2376;53.544;10.226;2022-07-09T10:07:35;21.00;99.90
4725;DHT22;2376;53.544;10.226;2022-07-09T10:10:06;21.00;99.90
4725;DHT22;2376;53.544;10.226;2022-07-09T10:12:34;21.00;99.90
4725;DHT22;2376;53.544;10.226;2022-07-09T10:15:08;21.00;99.90
4725;DHT22;2376;53.544;10.226;2022-07-09T10:17:45;20.90;99.90
4725;DHT22;2376;53.544;10.226;2022-07-09T10:20:12;20.70;99.90
4725;DHT22;2376;53.544;10.226;2022-07-09T10:22:40;20.80;99.90
4725;DHT22;2376;53.544;10.226;2022-07-09T10:25:08;20.90;99.90
4725;DHT22;2376;53.544;10.226;2022-07-09T10:27:42;21.10;99.90
4725;DHT22;2376;53.544;10.226;2022-07-09T10:30:22;21.20;99.90
4725;DHT22;2376;53.544;10.226;2022-07-09T10:33:01;21.40;99.90
4725;DHT22;2376;53.544;10.226;2022-07-09T10:35:29;21.50;99.90
4725;DHT22;2376;53.544;10.226;2022-07-09T10:37:56;21.50;99.90
4725;DHT22;2376;53.544;10.226;2022-07-09T10:40:23;21.50;99.90
4725;DHT22;2376;53.544;10.226;2022-07-09T10:42:58;21.60;99.90
4725;DHT22;2376;53.544;10.226;2022-07-09T10:45:27;21.70;99.90
4725;DHT22;2376;53.544;10.226;2022-07-09T10:47:58;21.70;99.90
4725;DHT22;2376;53.544;10.226;2022-07-09T10:50:27;21.60;99.90
4725;DHT22;2376;53.544;10.226;2022-07-09T10:52:55;21.70;99.90
4725;DHT22;2376;53.544;10.226;2022-07-09T10:55:23;21.80;99.90
4725;DHT22;2376;53.544;10.226;2022-07-09T10:57:51;21.90;99.90
4725;DHT22;2376;53.544;10.226;2022-07-09T11:00:19;21.80;99.90
4725;DHT22;2376;53.544;10.226;2022-07-09T11:02:58;21.80;99.90
4725;DHT22;2376;53.544;10.226;2022-07-09T11:05:26;22.10;99.90
4725;DHT22;2376;53.544;10.226;2022-07-09T11:07:54;22.20;99.90
4725;DHT22;2376;53.544;10.226;2022-07-09T11:10:21;22.30;99.90
4725;DHT22;2376;53.544;10.226;2022-07-09T11:12:49;22.30;99.90
4725;DHT22;2376;53.544;10.226;2022-07-09T11:15:19;22.20;99.90
4725;DHT22;2376;53.544;10.226;2022-07-09T11:17:54;22.10;99.90
4725;DHT22;2376;53.544;10.226;2022-07-09T11:20:22;21.80;99.90
4725;DHT22;2376;53.544;10.226;2022-07-09T11:22:49;21.90;99.90
4725;DHT22;2376;53.544;10.226;2022-07-09T11:25:17;22.00;99.90
4725;DHT22;2376;53.544;10.226;2022-07-09T11:27:44;22.20;99.90
4725;DHT22;2376;53.544;10.226;2022-07-09T11:30:14;22.40;99.90
4725;DHT22;2376;53.544;10.226;2022-07-09T11:32:41;22.60;99.90
4725;DHT22;2376;53.544;10.226;2022-07-09T11:35:09;22.80;99.90
4725;DHT22;2376;53.544;10.226;2022-07-09T11:37:37;22.80;99.90
4725;DHT22;2376;53.544;10.226;2022-07-09T11:40:05;23.00;99.90
4725;DHT22;2376;53.544;10.226;2022-07-09T11:42:40;23.20;99.90
4725;DHT22;2376;53.544;10.226;2022-07-09T11:45:09;23.10;99.90
4725;DHT22;2376;53.544;10.226;2022-07-09T11:47:37;23.30;99.90
4725;DHT22;2376;53.544;10.226;2022-07-09T11:50:05;23.40;99.90
4725;DHT22;2376;53.544;10.226;2022-07-09T11:52:33;22.90;99.90
4725;DHT22;2376;53.544;10.226;2022-07-09T11:55:03;22.70;99.90
4725;DHT22;2376;53.544;10.226;2022-07-09T11:57:31;22.30;99.90
4725;DHT22;2376;53.544;10.226;2022-07-09T11:59:59;22.30;99.90
4725;DHT22;2376;53.544;10.226;2022-07-09T12:02:30;21.80;99.90
4725;DHT22;2376;53.544;10.226;2022-07-09T12:04:58;21.60;99.90
4725;DHT22;2376;53.544;10.226;2022-07-09T12:07:25;21.70;99.90
4725;DHT22;2376;53.544;10.226;2022-07-09T12:10:00;21.80;99.90
4725;DHT22;2376;53.544;10.226;2022-07-09T12:12:30;21.80;99.90
4725;DHT22;2376;53.544;10.226;2022-07-09T12:14:58;21.80;99.90
4725;DHT22;2376;53.544;10.226;2022-07-09T12:17:26;21.90;99.90
4725;DHT22;2376;53.544;10.226;2022-07-09T12:19:54;22.00;99.90
4725;DHT22;2376;53.544;10.226;2022-07-09T12:22:22;22.00;99.90
4725;DHT22;2376;53.544;10.226;2022-07-09T12:24:50;22.10;99.90
4725;DHT22;2376;53.544;10.226;2022-07-09T12:27:19;22.30;99.90
4725;DHT22;2376;53.544;10.226;2022-07-09T12:29:47;22.50;99.90
4725;DHT22;2376;53.544;10.226;2022-07-09T12:32:16;22.60;99.90
4725;DHT22;2376;53.544;10.226;2022-07-09T12:34:48;22.80;99.90
4725;DHT22;2376;53.544;10.226;2022-07-09T12:37:15;22.80;99.90
4725;DHT22;2376;53.544;10.226;2022-07-09T12:39:49;22.80;99.90
4725;DHT22;2376;53.544;10.226;2022-07-09T12:42:23;22.60;99.90
4725;DHT22;2376;53.544;10.226;2022-07-09T12:44:57;22.30;99.90
4725;DHT22;2376;53.544;10.226;2022-07-09T12:47:30;22.30;99.90
4725;DHT22;2376;53.544;10.226;2022-07-09T12:49:57;22.30;99.90
4725;DHT22;2376;53.544;10.226;2022-07-09T12:52:23;22.30;99.90
4725;DHT22;2376;53.544;10.226;2022-07-09T12:54:51;22.10;99.90
4725;DHT22;2376;53.544;10.226;2022-07-09T12:57:20;22.20;99.90
4725;DHT22;2376;53.544;10.226;2022-07-09T12:59:47;22.30;99.90
4725;DHT22;2376;53.544;10.226;2022-07-09T13:02:13;22.30;99.90
4725;DHT22;2376;53.544;10.226;2022-07-09T13:04:40;22.40;99.90
4725;DHT22;2376;53.544;10.226;2022-07-09T13:07:06;22.60;99.90
4725;DHT22;2376;53.544;10.226;2022-07-09T13:09:33;22.60;99.90
4725;DHT22;2376;53.544;10.226;2022-07-09T13:12:00;22.40;99.90
4725;DHT22;2376;53.544;10.226;2022-07-09T13:14:28;22.40;99.90
4725;DHT22;2376;53.544;10.226;2022-07-09T13:16:55;22.40;99.90
4725;DHT22;2376;53.544;10.226;2022-07-09T13:19:22;22.40;99.90
4725;DHT22;2376;53.544;10.226;2022-07-09T13:21:48;22.50;99.90
4725;DHT22;2376;53.544;10.226;2022-07-09T13:24:15;22.50;99.90
4725;DHT22;2376;53.544;10.226;2022-07-09T13:26:42;22.60;99.90
4725;DHT22;2376;53.544;10.226;2022-07-09T13:29:08;22.60;99.90
4725;DHT22;2376;53.544;10.226;2022-07-09T13:31:36;22.60;99.90
4725;DHT22;2376;53.544;10.226;2022-07-09T13:34:03;22.70;99.90
4725;DHT22;2376;53.544;10.226;2022-07-09T13:36:30;22.70;97.60
4725;DHT22;2376;53.544;10.226;2022-07-09T13:38:57;22.70;96.40
4725;DHT22;2376;53.544;10.226;2022-07-09T13:41:23;22.70;95.60
4725;DHT22;2376;53.544;10.226;2022-07-09T13:43:50;22.70;94.40
4725;DHT22;2376;53.544;10.226;2022-07-09T13:46:17;22.70;94.50
4725;DHT22;2376;53.544;10.226;2022-07-09T13:48:46;22.70;93.80
4725;DHT22;2376;53.544;10.226;2022-07-09T13:51:12;22.80;94.00
4725;DHT22;2376;53.544;10.226;2022-07-09T13:53:39;22.70;93.00
4725;DHT22;2376;53.544;10.226;2022-07-09T13:56:06;22.60;93.70
4725;DHT22;2376;53.544;10.226;2022-07-09T13:58:33;22.50;93.40
4725;DHT22;2376;53.544;10.226;2022-07-09T14:01:00;22.20;94.30
4725;DHT22;2376;53.544;10.226;2022-07-09T14:03:26;22.10;94.10
4725;DHT22;2376;53.544;10.226;2022-07-09T14:05:55;21.90;95.10
4725;DHT22;2376;53.544;10.226;2022-07-09T14:08:21;21.90;95.70
4725;DHT22;2376;53.544;10.226;2022-07-09T14:10:50;21.80;96.10
4725;DHT22;2376;53.544;10.226;2022-07-09T14:13:23;21.50;94.80
4725;DHT22;2376;53.544;10.226;2022-07-09T14:15:53;21.20;95.40
4725;DHT22;2376;53.544;10.226;2022-07-09T14:18:19;21.10;96.00
4725;DHT22;2376;53.544;10.226;2022-07-09T14:20:46;21.10;94.60
4725;DHT22;2376;53.544;10.226;2022-07-09T14:23:15;20.80;94.20
4725;DHT22;2376;53.544;10.226;2022-07-09T14:25:41;20.70;94.70
4725;DHT22;2376;53.544;10.226;2022-07-09T14:28:09;20.80;96.10
4725;DHT22;2376;53.544;10.226;2022-07-09T14:30:36;21.00;95.30
4725;DHT22;2376;53.544;10.226;2022-07-09T14:33:03;21.00;96.10
4725;DHT22;2376;53.544;10.226;2022-07-09T14:35:29;21.20;96.00
4725;DHT22;2376;53.544;10.226;2022-07-09T14:37:56;21.20;95.70
4725;DHT22;2376;53.544;10.226;2022-07-09T14:40:24;21.20;95.10
4725;DHT22;2376;53.544;10.226;2022-07-09T14:42:51;21.20;93.30
4725;DHT22;2376;53.544;10.226;2022-07-09T14:45:18;21.20;93.00
4725;DHT22;2376;53.544;10.226;2022-07-09T14:47:45;21.20;94.00
4725;DHT22;2376;53.544;10.226;2022-07-09T14:50:11;21.30;94.10
4725;DHT22;2376;53.544;10.226;2022-07-09T14:52:38;21.40;94.00
4725;DHT22;2376;53.544;10.226;2022-07-09T14:55:05;21.40;94.30
4725;DHT22;2376;53.544;10.226;2022-07-09T14:57:33;21.60;94.60
4725;DHT22;2376;53.544;10.226;2022-07-09T15:00:00;21.60;93.70
4725;DHT22;2376;53.544;10.226;2022-07-09T15:02:27;21.50;94.10
4725;DHT22;2376;53.544;10.226;2022-07-09T15:04:53;21.50;95.00
4725;DHT22;2376;53.544;10.226;2022-07-09T15:07:22;21.60;95.90
4725;DHT22;2376;53.544;10.226;2022-07-09T15:09:49;21.60;94.70
4725;DHT22;2376;53.544;10.226;2022-07-09T15:12:16;21.60;94.30
4725;DHT22;2376;53.544;10.226;2022-07-09T15:14:44;21.40;94.20
4725;DHT22;2376;53.544;10.226;2022-07-09T15:17:11;21.30;94.90
4725;DHT22;2376;53.544;10.226;2022-07-09T15:19:37;21.20;93.60
4725;DHT22;2376;53.544;10.226;2022-07-09T15:22:04;21.30;94.00
4725;DHT22;2376;53.544;10.226;2022-07-09T15:24:31;21.30;94.20
4725;DHT22;2376;53.544;10.226;2022-07-09T15:26:57;21.10;93.90
4725;DHT22;2376;53.544;10.226;2022-07-09T15:29:24;20.90;93.80
4725;DHT22;2376;53.544;10.226;2022-07-09T15:31:52;20.70;94.90
4725;DHT22;2376;53.544;10.226;2022-07-09T15:34:19;20.60;93.60
4725;DHT22;2376;53.544;10.226;2022-07-09T15:36:46;20.60;93.10
4725;DHT22;2376;53.544;10.226;2022-07-09T15:39:12;20.50;93.10
4725;DHT22;2376;53.544;10.226;2022-07-09T15:41:40;20.50;93.80
4725;DHT22;2376;53.544;10.226;2022-07-09T15:44:06;20.60;93.20
4725;DHT22;2376;53.544;10.226;2022-07-09T15:46:34;20.70;93.40